• Join FlightAware (Why Join?)
  • Login
  • US Flag 
09:46AM EDT


 

Airport Tracker/Info


-or-


 

Live Flight TrackerFlight Track Log ✈ N400PU ✈ 04-Jun-2013 ✈ KLAF - KEVV

Flight Track Log - Related Links

Times and Time Zones

All times are in EDT time to prevent confusion due to time zone crossing. See the N400PU flight status page for this flight to view local times or setup timezone preferences in your user account.

Time Position Orientation Groundspeed Altitude Reporting Facility
EDT Latitude Longitude Course Direction KTS MPH feet Rate Location/Type
11:17AM 40.4075 -86.9167 138° Southeast 177 204 1,500  Level Chicago Center
11:18AM 40.3856 -86.8908 138° Southeast 186 214 3,200 2,940 Climbing Chicago Center
11:19AM 40.3264 -86.9058 191° South 230 265 6,300 2,880 Climbing Chicago Center
11:19AM 40.3086 -86.9131 197° South 270 311 7,000 2,520 Climbing Chicago Center
11:20AM 40.2450 -86.9392 197° South 244 281 9,700 2,340 Climbing Chicago Center
11:21AM 40.1806 -86.9633 196° South 243 280 11,900 1,860 Climbing Chicago Center
11:22AM 40.1058 -86.9961 199° South 282 325 13,600 1,560 Climbing Chicago Center
11:22AM 40.0700 -87.0064 192° South 277 319 14,000 300 Climbing Indianapolis Center
11:23AM 39.9764 -87.0450 198° South 322 371 14,000  Level Indianapolis Center
11:24AM 39.8761 -87.0883 198° South 360 414 14,000  Level Indianapolis Center
11:25AM 39.7742 -87.1314 198° South 373 429 14,000  Level Indianapolis Center
11:26AM 39.6722 -87.1725 197° South 380 437 14,000  Level Indianapolis Center
11:27AM 39.5694 -87.2153 198° South 383 441 14,000  Level Indianapolis Center
11:28AM 39.4661 -87.2547 196° South 385 443 14,000  Level Indianapolis Center
11:30AM 39.3581 -87.2758 189° South 390 449 14,000 -300 Level Indianapolis Center
11:31AM 39.2331 -87.2994 188° South 385 443 13,400 -780 Descending Indianapolis Center
11:32AM 39.1319 -87.3186 188° South 376 433 12,500 -900 Descending Indianapolis Center
11:33AM 39.0339 -87.3378 189° South 366 421 11,600 -780 Descending Indianapolis Center
11:34AM 38.9361 -87.3581 189° South 360 414 11,000 -300 Descending Indianapolis Center
11:35AM 38.8378 -87.3767 188° South 357 411 11,000  Level Indianapolis Center
11:36AM 38.7383 -87.3961 189° South 358 412 11,000 -360 Level Indianapolis Center
11:37AM 38.6178 -87.4189 188° South 363 418 10,300 -780 Descending Indianapolis Center
11:38AM 38.5333 -87.4361 189° South 326 375 9,400 -1,440 Descending Indianapolis Center
11:39AM 38.4592 -87.4503 189° South 291 335 7,400 -2,100 Descending Indianapolis Center
11:40AM 38.3842 -87.4639 188° South 278 320 5,100 -1,380 Descending Indianapolis Center
11:41AM 38.3122 -87.4778 189° South 271 312 4,600 -1,260 Descending Indianapolis Center
11:42AM 38.2422 -87.4922 189° South 263 303 2,500 -1,020 Descending Indianapolis Center
11:43AM 38.1717 -87.5053 188° South 231 266 2,500  Level Indianapolis Center
11:44AM 38.1194 -87.5164 190° South 204 235 2,500 -300 Level Indianapolis Center
11:45AM 38.0731 -87.5461 207° Southwest 200 230 1,900 -420 Descending Indianapolis Center
11:46AM 38.0389 -87.5933 227° Southwest 187 215 1,700 -300 Descending Indianapolis Center
11:47AM 38.0069 -87.5808 163° South 172 198 1,300 -360 Descending Indianapolis Center
11:48AM 38.0228 -87.5286 69° East 161 185 1,000 -300 Descending Indianapolis Center